Time;durP1;ratioP1;P1;durP2;ratioP2;P2;SDS_P1;SDS_P2;PMS_P1;PMS_P2;Temp;Humidity;BMP_temperature;BMP_pressure;BME280_temperature;BME280_humidity;BME280_pressure;Samples;Min_cycle;Max_cycle;Signal;HPM_P1;HPM_P2
2022/08/16 00:01:56;;;;;;;13.38;12.18;;;20.90;99.90;;;;;;4999944;28;20046;-69
2022/08/16 00:04:21;;;;;;;13.13;11.85;;;20.80;99.90;;;;;;5002598;28;20037;-68
2022/08/16 00:06:47;;;;;;;13.95;12.63;;;20.70;99.90;;;;;;5002586;28;20538;-68
2022/08/16 00:09:13;;;;;;;13.07;11.88;;;20.60;99.90;;;;;;4987505;28;20052;-69
2022/08/16 00:11:40;;;;;;;13.27;12.10;;;20.60;99.90;;;;;;5002477;28;20049;-69
2022/08/16 00:14:10;;;;;;;13.32;12.05;;;20.50;99.90;;;;;;5004916;28;20480;-69
2022/08/16 00:16:36;;;;;;;12.90;11.80;;;20.60;99.90;;;;;;4999672;28;20089;-69
2022/08/16 00:19:03;;;;;;;14.52;13.35;;;20.60;99.90;;;;;;5004576;28;20078;-69
2022/08/16 00:21:29;;;;;;;16.00;14.35;;;20.70;99.90;;;;;;5002536;28;20041;-68
2022/08/16 00:23:55;;;;;;;15.23;13.98;;;20.60;99.90;;;;;;5004203;28;20030;-68
2022/08/16 00:26:21;;;;;;;14.20;13.13;;;20.60;99.90;;;;;;4999569;28;21976;-69
2022/08/16 00:28:46;;;;;;;15.18;13.80;;;20.60;99.90;;;;;;5003966;28;20072;-69
2022/08/16 00:31:12;;;;;;;15.05;13.43;;;20.60;99.90;;;;;;5023404;28;20450;-69
2022/08/16 00:33:37;;;;;;;14.52;13.10;;;20.60;99.90;;;;;;5004055;28;20065;-69
2022/08/16 00:36:04;;;;;;;13.55;12.45;;;20.60;99.90;;;;;;5004084;28;20092;-69
2022/08/16 00:38:29;;;;;;;13.48;12.23;;;20.60;99.90;;;;;;5001823;28;20038;-69
2022/08/16 00:40:55;;;;;;;14.57;13.27;;;20.70;99.90;;;;;;5001572;28;20053;-69
2022/08/16 00:43:26;;;;;;;14.05;12.80;;;20.70;99.90;;;;;;5000497;28;20069;-69
2022/08/16 00:46:18;;;;;;;15.15;13.85;;;20.70;99.90;;;;;;4998812;28;20043;-68
2022/08/16 00:48:44;;;;;;;14.77;13.55;;;20.70;99.90;;;;;;5003711;28;20045;-69
2022/08/16 00:51:12;;;;;;;14.38;13.20;;;20.70;99.90;;;;;;5002752;28;20103;-69
2022/08/16 00:53:38;;;;;;;14.95;13.65;;;20.70;99.90;;;;;;5000196;28;20045;-69
2022/08/16 00:56:11;;;;;;;15.35;14.13;;;20.80;99.90;;;;;;4991703;28;20042;-69
2022/08/16 00:58:42;;;;;;;16.13;14.77;;;20.80;99.90;;;;;;5000059;28;20049;-69
2022/08/16 01:01:08;;;;;;;16.42;15.00;;;20.70;99.90;;;;;;5000409;28;20572;-69
2022/08/16 01:03:36;;;;;;;16.27;14.77;;;20.80;99.90;;;;;;5001532;28;20038;-69
2022/08/16 01:06:03;;;;;;;16.15;14.88;;;20.60;99.90;;;;;;5002801;28;20606;-69
2022/08/16 01:08:30;;;;;;;15.55;14.25;;;20.70;99.90;;;;;;5023260;28;20045;-69
2022/08/16 01:10:56;;;;;;;15.70;14.43;;;20.60;99.90;;;;;;5023237;28;20060;-69
2022/08/16 01:13:25;;;;;;;15.40;14.15;;;20.60;99.90;;;;;;5027297;28;20315;-69
2022/08/16 01:16:27;;;;;;;15.25;13.95;;;20.60;99.90;;;;;;5044360;28;20123;-69
2022/08/16 01:19:18;;;;;;;16.25;14.82;;;20.50;99.90;;;;;;4951852;28;20083;-69
2022/08/16 01:21:53;;;;;;;15.52;14.10;;;20.50;99.90;;;;;;5007724;28;20056;-69
2022/08/16 01:24:36;;;;;;;16.10;14.80;;;20.50;99.90;;;;;;5020741;28;20037;-69
2022/08/16 01:27:08;;;;;;;16.10;14.90;;;20.40;99.90;;;;;;5040442;28;20099;-69
2022/08/16 01:29:43;;;;;;;16.17;14.88;;;20.40;99.90;;;;;;5038936;28;20036;-69
2022/08/16 01:32:09;;;;;;;16.88;15.40;;;20.30;99.90;;;;;;5037836;28;20120;-69
2022/08/16 01:34:34;;;;;;;16.40;15.20;;;20.40;99.90;;;;;;5024549;28;20573;-69
2022/08/16 01:37:06;;;;;;;17.60;16.00;;;20.40;99.90;;;;;;5011368;28;20426;-69
2022/08/16 01:39:32;;;;;;;17.58;16.08;;;20.40;99.90;;;;;;5028378;28;20074;-69
2022/08/16 01:41:59;;;;;;;17.73;16.23;;;20.40;99.90;;;;;;5024369;28;20068;-69
2022/08/16 01:44:25;;;;;;;17.95;16.45;;;20.40;99.90;;;;;;5044397;28;20603;-69
2022/08/16 01:46:52;;;;;;;17.90;16.17;;;20.40;99.90;;;;;;5043268;28;20037;-69
2022/08/16 01:49:23;;;;;;;18.27;16.67;;;20.40;99.90;;;;;;5044831;28;20033;-69
2022/08/16 01:51:57;;;;;;;19.05;17.35;;;20.40;99.90;;;;;;5025948;28;20037;-69
2022/08/16 01:54:24;;;;;;;19.70;18.10;;;20.40;99.90;;;;;;5045473;28;20383;-69
2022/08/16 01:56:50;;;;;;;19.58;17.75;;;20.40;99.90;;;;;;5045251;28;20498;-69
2022/08/16 01:59:16;;;;;;;20.33;18.80;;;20.40;99.90;;;;;;5025177;28;20132;-69
2022/08/16 02:01:44;;;;;;;18.52;16.75;;;20.40;99.90;;;;;;5025039;28;20124;-69
2022/08/16 02:04:09;;;;;;;20.25;18.38;;;20.40;99.90;;;;;;5042193;28;20045;-69
2022/08/16 02:06:35;;;;;;;19.80;18.00;;;20.40;99.90;;;;;;5006090;28;20037;-69
2022/08/16 02:09:01;;;;;;;19.17;17.42;;;20.40;99.90;;;;;;5025820;28;20132;-69
2022/08/16 02:11:28;;;;;;;20.15;18.23;;;20.40;99.90;;;;;;5026928;28;20498;-69
2022/08/16 02:13:54;;;;;;;17.98;16.42;;;20.40;99.90;;;;;;5044994;28;20602;-69
2022/08/16 02:16:20;;;;;;;18.17;16.67;;;20.30;99.90;;;;;;5025556;28;20544;-69
2022/08/16 02:18:46;;;;;;;19.23;17.58;;;20.30;99.90;;;;;;5043752;28;20037;-69
2022/08/16 02:21:13;;;;;;;18.27;16.77;;;20.20;99.90;;;;;;5024687;28;20061;-69
2022/08/16 02:23:39;;;;;;;18.13;16.45;;;20.20;99.90;;;;;;5041758;28;20068;-69
2022/08/16 02:26:06;;;;;;;19.13;17.45;;;20.20;99.90;;;;;;5045427;28;20037;-69
2022/08/16 02:28:32;;;;;;;18.95;17.25;;;20.10;99.90;;;;;;5047767;28;20100;-69
2022/08/16 02:31:01;;;;;;;20.13;18.52;;;20.10;99.90;;;;;;5024423;28;20212;-69
2022/08/16 02:33:27;;;;;;;19.73;18.00;;;20.10;99.90;;;;;;5039316;28;20115;-69
2022/08/16 02:35:53;;;;;;;19.33;17.75;;;20.10;99.90;;;;;;5025833;28;20065;-69
2022/08/16 02:38:18;;;;;;;20.13;18.42;;;20.00;99.90;;;;;;5044145;28;20076;-69
2022/08/16 02:40:44;;;;;;;19.95;18.25;;;19.90;99.90;;;;;;5045894;28;20033;-69
2022/08/16 02:43:10;;;;;;;20.70;19.10;;;19.90;99.90;;;;;;5010002;28;20038;-69
2022/08/16 02:45:36;;;;;;;19.30;17.80;;;19.80;99.90;;;;;;5026530;28;20585;-69
2022/08/16 02:48:02;;;;;;;20.25;18.45;;;19.60;99.90;;;;;;5027980;28;20552;-69
2022/08/16 02:50:28;;;;;;;19.23;17.60;;;19.50;99.90;;;;;;5025681;28;20045;-69
2022/08/16 02:52:54;;;;;;;18.92;17.42;;;19.40;99.90;;;;;;5040247;28;20116;-69
2022/08/16 02:55:19;;;;;;;19.50;17.95;;;19.50;99.90;;;;;;5043033;28;20548;-69
2022/08/16 02:57:45;;;;;;;19.38;17.98;;;19.40;99.90;;;;;;5042110;28;20025;-69
2022/08/16 03:00:12;;;;;;;19.67;18.00;;;19.40;99.90;;;;;;5025603;28;20045;-69
2022/08/16 03:02:40;;;;;;;19.85;18.08;;;19.40;99.90;;;;;;5020501;28;20065;-69
2022/08/16 03:05:08;;;;;;;19.27;17.63;;;19.40;99.90;;;;;;5047634;28;20489;-69
2022/08/16 03:07:34;;;;;;;20.05;18.30;;;19.30;99.90;;;;;;5041318;28;20054;-69
2022/08/16 03:10:00;;;;;;;20.15;18.45;;;19.30;99.90;;;;;;5045996;28;20128;-69
2022/08/16 03:12:25;;;;;;;20.60;18.73;;;19.30;99.90;;;;;;5025215;28;20127;-69
2022/08/16 03:14:51;;;;;;;20.38;18.50;;;19.30;99.90;;;;;;5041482;28;20564;-69
2022/08/16 03:17:16;;;;;;;19.77;18.17;;;19.20;99.90;;;;;;5043530;28;20037;-69
2022/08/16 03:19:42;;;;;;;20.20;18.45;;;19.20;99.90;;;;;;5020354;28;20036;-69
2022/08/16 03:22:08;;;;;;;21.75;19.60;;;19.20;99.90;;;;;;5044115;28;20040;-69
2022/08/16 03:24:34;;;;;;;21.80;19.90;;;19.20;99.90;;;;;;5024213;28;20045;-69
2022/08/16 03:27:01;;;;;;;21.20;19.08;;;19.10;99.90;;;;;;5041706;28;20124;-69
2022/08/16 03:29:29;;;;;;;20.45;18.75;;;19.00;99.90;;;;;;5025084;28;20036;-69
2022/08/16 03:31:54;;;;;;;20.15;18.40;;;19.00;99.90;;;;;;5025043;28;20067;-69
2022/08/16 03:34:20;;;;;;;22.00;20.05;;;19.00;99.90;;;;;;5027559;28;20390;-69
2022/08/16 03:36:46;;;;;;;20.02;18.30;;;18.90;99.90;;;;;;5039198;28;20052;-69
2022/08/16 03:39:12;;;;;;;20.08;18.45;;;18.90;99.90;;;;;;5026025;28;20053;-69
2022/08/16 03:41:39;;;;;;;19.55;17.85;;;18.90;99.90;;;;;;5046750;28;20086;-69
2022/08/16 03:44:06;;;;;;;20.10;18.35;;;18.90;99.90;;;;;;5041551;28;20112;-69
2022/08/16 03:46:33;;;;;;;20.33;18.52;;;18.80;99.90;;;;;;5022527;28;20052;-69
2022/08/16 03:48:59;;;;;;;20.10;18.38;;;18.70;99.90;;;;;;5043411;28;20537;-69
2022/08/16 03:51:26;;;;;;;19.73;18.08;;;18.70;99.90;;;;;;5025125;28;20048;-69
2022/08/16 03:53:52;;;;;;;20.40;18.60;;;18.70;99.90;;;;;;5038670;28;20046;-69
2022/08/16 03:56:18;;;;;;;18.90;17.20;;;18.70;99.90;;;;;;5023261;28;20095;-69
2022/08/16 03:58:44;;;;;;;18.63;17.02;;;18.60;99.90;;;;;;5010177;28;20132;-69
2022/08/16 04:01:10;;;;;;;20.42;18.65;;;18.60;99.90;;;;;;5024202;28;20045;-69
2022/08/16 04:03:36;;;;;;;20.70;18.80;;;18.60;99.90;;;;;;5007332;28;20037;-69
2022/08/16 04:06:02;;;;;;;20.55;18.65;;;18.60;99.90;;;;;;5041594;28;20076;-69
2022/08/16 04:08:30;;;;;;;21.08;19.40;;;18.60;99.90;;;;;;5023450;28;20045;-69
2022/08/16 04:10:56;;;;;;;20.85;19.00;;;18.50;99.90;;;;;;5025967;28;20041;-69
2022/08/16 04:13:23;;;;;;;20.70;19.00;;;18.50;99.90;;;;;;5042590;28;20598;-69
2022/08/16 04:15:48;;;;;;;20.92;19.02;;;18.40;99.90;;;;;;5022935;28;20127;-69
2022/08/16 04:18:15;;;;;;;21.10;19.30;;;18.50;99.90;;;;;;5024212;28;20528;-69
2022/08/16 04:20:41;;;;;;;22.17;20.17;;;18.40;99.90;;;;;;5025698;28;20087;-69
2022/08/16 04:23:07;;;;;;;22.85;20.75;;;18.40;99.90;;;;;;5024159;28;20086;-69
2022/08/16 04:25:34;;;;;;;22.60;20.45;;;18.40;99.90;;;;;;5040273;28;20053;-69
2022/08/16 04:28:00;;;;;;;21.55;19.42;;;18.40;99.90;;;;;;5039684;28;20470;-69
2022/08/16 04:30:26;;;;;;;20.42;18.63;;;18.40;99.90;;;;;;5024512;28;20033;-69
2022/08/16 04:32:53;;;;;;;20.13;18.30;;;18.40;99.90;;;;;;5022231;28;20049;-69
2022/08/16 04:35:21;;;;;;;21.70;19.85;;;18.40;99.90;;;;;;5026820;28;20041;-69
2022/08/16 04:37:48;;;;;;;20.73;18.85;;;18.40;99.90;;;;;;5040647;28;20095;-69
2022/08/16 04:40:15;;;;;;;22.17;19.95;;;18.40;99.90;;;;;;5042874;28;20037;-69
2022/08/16 04:42:41;;;;;;;20.25;18.45;;;18.40;99.90;;;;;;5038138;28;20029;-69
2022/08/16 04:45:09;;;;;;;20.83;18.90;;;18.40;99.90;;;;;;5042350;28;20126;-69
2022/08/16 04:47:36;;;;;;;34.45;20.33;;;18.30;99.90;;;;;;5042439;28;20077;-69
2022/08/16 04:50:23;;;;;;;21.60;19.63;;;18.30;99.90;;;;;;5041067;28;20098;-69
2022/08/16 04:52:50;;;;;;;21.50;19.17;;;18.30;99.90;;;;;;5044409;28;20175;-69
2022/08/16 04:55:22;;;;;;;28.98;20.08;;;18.40;99.90;;;;;;5024810;28;20487;-69
2022/08/16 04:57:50;;;;;;;21.30;19.20;;;18.40;99.90;;;;;;5025328;28;20041;-69
2022/08/16 05:00:22;;;;;;;22.33;20.20;;;18.40;99.90;;;;;;5025321;28;20037;-68
2022/08/16 05:02:49;;;;;;;24.05;19.05;;;18.50;99.90;;;;;;5042829;28;20450;-69
2022/08/16 05:05:15;;;;;;;47.60;20.60;;;18.50;99.90;;;;;;5040882;28;20041;-69
2022/08/16 05:07:41;;;;;;;24.67;20.17;;;18.50;99.90;;;;;;5015674;28;20129;-69
2022/08/16 05:10:08;;;;;;;25.08;20.83;;;18.50;99.90;;;;;;4995026;28;20826;-69
2022/08/16 05:12:35;;;;;;;22.13;20.10;;;18.40;99.90;;;;;;5013197;28;20529;-69
2022/08/16 05:15:00;;;;;;;22.30;20.30;;;18.40;99.90;;;;;;5010842;28;20704;-69
2022/08/16 05:17:26;;;;;;;22.73;20.73;;;18.30;99.90;;;;;;5010135;28;20116;-69
2022/08/16 05:19:52;;;;;;;30.00;20.85;;;18.30;99.90;;;;;;5009922;28;20045;-69
2022/08/16 05:22:18;;;;;;;20.55;18.65;;;18.30;99.90;;;;;;5010159;28;20503;-69
2022/08/16 05:24:44;;;;;;;22.10;20.10;;;18.50;99.90;;;;;;5011406;28;20082;-69
2022/08/16 05:27:10;;;;;;;23.23;20.95;;;18.60;99.90;;;;;;5008431;28;20087;-69
2022/08/16 05:29:36;;;;;;;21.10;19.30;;;18.60;99.90;;;;;;5010094;28;20034;-69
2022/08/16 05:32:02;;;;;;;22.17;20.08;;;18.70;99.90;;;;;;5009482;28;20115;-69
2022/08/16 05:34:28;;;;;;;40.85;23.48;;;18.70;99.90;;;;;;5008560;28;20060;-68
2022/08/16 05:36:56;;;;;;;23.50;21.23;;;18.80;99.90;;;;;;5009005;28;20528;-70
2022/08/16 05:39:23;;;;;;;23.15;20.83;;;18.90;99.90;;;;;;5026065;28;20495;-69
2022/08/16 05:41:49;;;;;;;25.98;23.65;;;19.00;99.90;;;;;;5008089;28;20046;-69
2022/08/16 05:44:16;;;;;;;25.63;23.25;;;19.20;99.90;;;;;;5004990;28;21593;-69
2022/08/16 05:46:43;;;;;;;26.45;24.02;;;19.30;99.90;;;;;;5009935;28;20212;-69
2022/08/16 05:49:09;;;;;;;25.30;23.10;;;19.40;99.90;;;;;;5010165;28;20070;-69
2022/08/16 05:51:35;;;;;;;24.52;22.17;;;19.60;99.90;;;;;;5010594;28;20131;-69
2022/08/16 05:54:01;;;;;;;23.52;21.42;;;20.30;99.90;;;;;;5008750;28;20603;-69
2022/08/16 05:56:27;;;;;;;23.77;21.35;;;21.50;99.90;;;;;;5011368;28;20038;-69
2022/08/16 05:58:52;;;;;;;22.33;20.30;;;22.60;99.90;;;;;;5010610;28;20049;-69
2022/08/16 06:01:18;;;;;;;21.27;19.40;;;23.70;99.90;;;;;;5006193;28;20164;-70
2022/08/16 06:03:43;;;;;;;21.13;19.30;;;24.60;99.90;;;;;;5010275;28;20061;-69
2022/08/16 06:06:09;;;;;;;19.92;18.10;;;;;;;;;;5011852;28;20049;-69
2022/08/16 06:08:35;;;;;;;19.95;18.13;;;26.20;99.90;;;;;;5030164;28;20506;-70
2022/08/16 06:11:00;;;;;;;18.02;16.42;;;27.30;99.70;;;;;;5045682;28;20068;-70
2022/08/16 06:13:26;;;;;;;17.30;15.57;;;;;;;;;;5043707;28;20404;-70
2022/08/16 06:15:53;;;;;;;17.58;15.93;;;;;;;;;;5025506;28;20049;-70
2022/08/16 06:18:19;;;;;;;16.17;14.88;;;;;;;;;;5037637;28;20068;-70
2022/08/16 06:20:44;;;;;;;16.05;14.55;;;29.20;95.50;;;;;;5025440;28;20095;-70
2022/08/16 06:23:10;;;;;;;16.65;14.77;;;29.60;95.30;;;;;;5027554;28;20041;-70
2022/08/16 06:25:36;;;;;;;14.32;13.13;;;30.20;93.70;;;;;;5028744;28;20037;-70
2022/08/16 06:28:04;;;;;;;14.15;12.95;;;30.30;93.60;;;;;;5041629;28;20064;-70
2022/08/16 06:30:31;;;;;;;15.50;13.90;;;29.90;92.90;;;;;;5048464;28;20029;-70
2022/08/16 06:32:56;;;;;;;15.70;14.18;;;29.10;91.80;;;;;;5044926;28;20398;-70
2022/08/16 06:35:23;;;;;;;14.50;13.23;;;28.40;93.60;;;;;;5039510;28;20128;-70
2022/08/16 06:37:48;;;;;;;14.00;12.60;;;27.60;93.80;;;;;;5043207;28;20461;-69
2022/08/16 06:40:14;;;;;;;17.60;13.77;;;27.60;93.80;;;;;;5040691;28;20059;-70
2022/08/16 06:42:39;;;;;;;14.82;13.52;;;27.30;93.80;;;;;;5041975;28;20124;-70
2022/08/16 06:45:06;;;;;;;14.57;13.27;;;26.90;94.70;;;;;;5041069;28;20047;-70
2022/08/16 06:47:31;;;;;;;18.98;15.07;;;26.40;95.10;;;;;;5042854;28;20051;-70
2022/08/16 06:49:57;;;;;;;17.02;15.52;;;25.90;96.10;;;;;;5025273;28;20029;-69
2022/08/16 06:52:22;;;;;;;15.65;14.20;;;25.50;96.90;;;;;;5025215;28;20540;-70
2022/08/16 06:54:48;;;;;;;15.25;13.90;;;25.40;97.60;;;;;;5044241;28;20397;-70
2022/08/16 06:57:14;;;;;;;14.95;13.75;;;25.50;98.10;;;;;;5042214;28;20083;-70
2022/08/16 06:59:40;;;;;;;15.80;14.48;;;26.60;97.20;;;;;;5040635;28;20135;-70
2022/08/16 07:02:06;;;;;;;15.07;13.77;;;27.20;95.70;;;;;;5026228;28;20140;-70
2022/08/16 07:04:31;;;;;;;15.43;13.90;;;27.70;95.30;;;;;;5025493;28;20045;-70
2022/08/16 07:06:57;;;;;;;15.27;13.77;;;27.90;94.30;;;;;;5028042;28;20048;-70
2022/08/16 07:09:23;;;;;;;15.30;14.00;;;28.40;93.50;;;;;;5039689;28;20050;-70
2022/08/16 07:11:48;;;;;;;14.75;13.45;;;28.70;93.00;;;;;;5024046;28;20052;-70
2022/08/16 07:14:14;;;;;;;13.50;12.27;;;29.30;92.70;;;;;;5042767;28;20395;-70
2022/08/16 07:16:43;;;;;;;14.48;13.15;;;29.90;91.80;;;;;;5025284;28;20056;-70
2022/08/16 07:19:09;;;;;;;13.60;12.40;;;30.50;91.10;;;;;;5024719;28;20036;-70
2022/08/16 07:21:35;;;;;;;13.00;11.95;;;30.90;90.10;;;;;;5007272;28;20287;-70
2022/08/16 07:24:02;;;;;;;13.32;12.13;;;31.30;87.50;;;;;;5050167;23;20088;-70
2022/08/16 07:26:28;;;;;;;13.43;12.13;;;31.50;86.80;;;;;;5046561;28;20085;-72
2022/08/16 07:28:53;;;;;;;11.10;9.98;;;31.60;84.50;;;;;;5046923;28;20074;-70
2022/08/16 07:31:20;;;;;;;11.82;10.77;;;31.90;83.10;;;;;;5041862;28;20363;-70
2022/08/16 07:33:46;;;;;;;12.90;11.60;;;31.70;83.10;;;;;;5021429;28;20045;-70
2022/08/16 07:36:13;;;;;;;12.60;11.50;;;32.00;82.00;;;;;;5042048;28;20041;-70
2022/08/16 07:38:39;;;;;;;12.52;11.50;;;32.00;81.00;;;;;;5026431;28;20082;-70
2022/08/16 07:41:05;;;;;;;12.00;10.93;;;31.90;81.00;;;;;;5028349;28;20491;-69
2022/08/16 07:43:31;;;;;;;17.83;11.45;;;31.90;80.30;;;;;;5048542;28;20111;-70
2022/08/16 07:45:58;;;;;;;12.88;11.15;;;32.10;79.60;;;;;;5046939;28;20064;-70
2022/08/16 07:48:24;;;;;;;13.00;11.10;;;32.10;78.90;;;;;;5045015;28;20036;-70
2022/08/16 07:50:50;;;;;;;12.02;10.70;;;32.20;79.30;;;;;;5026735;28;20034;-70
2022/08/16 07:53:16;;;;;;;11.27;10.00;;;32.20;78.70;;;;;;5041233;28;20086;-70
2022/08/16 07:55:41;;;;;;;11.90;10.70;;;32.30;78.80;;;;;;5041239;28;20072;-70
2022/08/16 07:58:07;;;;;;;12.18;11.07;;;32.00;79.50;;;;;;5044263;28;20044;-70
2022/08/16 08:00:33;;;;;;;11.10;10.00;;;31.50;78.60;;;;;;5023024;28;20049;-69
2022/08/16 08:02:59;;;;;;;11.07;10.00;;;30.90;80.20;;;;;;5025342;28;20178;-70
2022/08/16 08:05:26;;;;;;;10.18;9.35;;;30.20;82.70;;;;;;5009253;28;20088;-70
2022/08/16 08:07:52;;;;;;;11.00;9.90;;;29.70;82.60;;;;;;5025716;28;20029;-70
2022/08/16 08:10:20;;;;;;;12.32;11.02;;;29.30;83.80;;;;;;5024470;28;20044;-69
2022/08/16 08:12:51;;;;;;;12.82;11.82;;;28.70;85.10;;;;;;5023101;28;20125;-70
2022/08/16 08:15:19;;;;;;;13.27;12.05;;;28.40;86.20;;;;;;5036590;28;20053;-70
2022/08/16 08:17:44;;;;;;;12.80;11.00;;;28.20;86.00;;;;;;5028045;28;20068;-70
2022/08/16 08:20:14;;;;;;;11.57;10.50;;;28.00;86.60;;;;;;5045376;28;20075;-70
2022/08/16 08:22:40;;;;;;;11.95;10.75;;;27.70;88.40;;;;;;5023691;28;20123;-70
2022/08/16 08:25:06;;;;;;;12.25;11.05;;;27.50;88.40;;;;;;5030189;28;20522;-70
2022/08/16 08:27:32;;;;;;;11.73;10.55;;;27.40;88.20;;;;;;5027242;28;21112;-70
2022/08/16 08:29:58;;;;;;;11.93;10.73;;;27.40;88.70;;;;;;5030448;28;20052;-70
2022/08/16 08:32:27;;;;;;;10.80;9.70;;;27.40;87.50;;;;;;5045898;28;20377;-70
2022/08/16 08:34:57;;;;;;;10.07;9.07;;;27.20;88.30;;;;;;5051509;28;20045;-70
2022/08/16 08:37:24;;;;;;;10.98;9.95;;;27.30;88.60;;;;;;5048485;28;20049;-70
2022/08/16 08:39:50;;;;;;;9.85;8.95;;;27.30;87.60;;;;;;5050377;28;20090;-70
2022/08/16 08:42:15;;;;;;;9.52;8.57;;;27.20;88.90;;;;;;5045682;28;20415;-70
2022/08/16 08:44:41;;;;;;;10.52;9.60;;;27.30;90.00;;;;;;5046107;28;20588;-70
2022/08/16 08:47:07;;;;;;;10.98;9.50;;;27.30;88.80;;;;;;5028417;28;20033;-70
2022/08/16 08:49:34;;;;;;;10.93;9.85;;;27.30;87.50;;;;;;5046122;28;20037;-69
2022/08/16 08:52:00;;;;;;;11.20;10.00;;;27.20;88.10;;;;;;5043996;28;20410;-69
2022/08/16 08:54:26;;;;;;;10.48;9.43;;;27.30;87.90;;;;;;5030491;28;20037;-70
2022/08/16 08:56:53;;;;;;;10.90;9.80;;;27.30;88.00;;;;;;5031556;28;20128;-70
2022/08/16 08:59:18;;;;;;;11.15;10.15;;;27.30;88.80;;;;;;5050169;28;20045;-70
2022/08/16 09:01:46;;;;;;;11.38;10.20;;;27.30;87.60;;;;;;5031333;28;20041;-70
2022/08/16 09:04:12;;;;;;;10.43;9.32;;;27.40;87.10;;;;;;5027221;28;20482;-70
2022/08/16 09:06:38;;;;;;;9.85;8.35;;;27.30;88.10;;;;;;5043560;28;20179;-70
2022/08/16 09:09:05;;;;;;;9.32;8.52;;;27.30;89.80;;;;;;5031983;28;20476;-69
2022/08/16 09:11:32;;;;;;;9.40;8.27;;;27.40;89.00;;;;;;5028946;28;20068;-70
2022/08/16 09:13:58;;;;;;;10.00;7.80;;;27.40;87.70;;;;;;5027936;28;20045;-69
2022/08/16 09:16:24;;;;;;;9.65;8.63;;;27.50;87.80;;;;;;5025693;28;20033;-69
2022/08/16 09:18:50;;;;;;;11.02;8.55;;;27.40;87.80;;;;;;5047667;28;20094;-70
2022/08/16 09:21:16;;;;;;;11.18;10.00;;;27.50;88.80;;;;;;5044322;28;20033;-70
2022/08/16 09:23:42;;;;;;;11.95;8.90;;;27.50;87.50;;;;;;5047395;28;20049;-70
2022/08/16 09:26:10;;;;;;;10.57;9.60;;;27.60;88.30;;;;;;5030583;28;20040;-70
2022/08/16 09:28:36;;;;;;;10.02;8.48;;;27.70;87.80;;;;;;5043638;28;20055;-70
2022/08/16 09:31:03;;;;;;;8.95;8.15;;;27.60;88.30;;;;;;5030509;28;20037;-69
2022/08/16 09:33:29;;;;;;;7.72;6.95;;;27.70;86.70;;;;;;5051996;28;20052;-70
2022/08/16 09:35:55;;;;;;;9.10;6.93;;;27.70;86.30;;;;;;5030984;28;20048;-68
2022/08/16 09:38:23;;;;;;;6.53;5.85;;;27.80;85.30;;;;;;5039734;28;20045;-68
2022/08/16 09:40:49;;;;;;;6.88;6.07;;;27.80;86.10;;;;;;5046263;28;20045;-68
2022/08/16 09:43:18;;;;;;;7.38;6.13;;;27.90;86.30;;;;;;5046855;28;20040;-68
2022/08/16 09:45:45;;;;;;;8.05;6.15;;;27.90;85.00;;;;;;5052742;28;20052;-67
2022/08/16 09:48:13;;;;;;;7.65;6.93;;;27.90;84.10;;;;;;5048110;28;20076;-69
2022/08/16 09:50:42;;;;;;;9.10;6.72;;;28.00;84.40;;;;;;5046698;28;20067;-69
2022/08/16 09:53:12;;;;;;;7.20;6.50;;;27.90;84.50;;;;;;5048489;28;20088;-69
2022/08/16 09:55:38;;;;;;;7.53;6.63;;;27.90;84.60;;;;;;5048759;28;20039;-69
2022/08/16 09:58:04;;;;;;;7.75;6.85;;;28.00;85.50;;;;;;5033563;28;20096;-69
2022/08/16 10:00:29;;;;;;;7.80;6.47;;;28.00;85.40;;;;;;5032634;28;20454;-69
2022/08/16 10:02:55;;;;;;;7.82;5.80;;;28.10;86.90;;;;;;5030044;28;20468;-69
2022/08/16 10:05:21;;;;;;;6.68;5.55;;;28.10;84.70;;;;;;5034535;28;20043;-69
2022/08/16 10:07:51;;;;;;;7.63;5.47;;;28.20;83.70;;;;;;5048767;28;20044;-69
2022/08/16 10:10:18;;;;;;;6.72;6.13;;;28.20;83.40;;;;;;5052482;28;20087;-69
2022/08/16 10:15:28;;;;;;;7.75;6.07;;;28.30;83.70;;;;;;5046451;28;20041;-68
2022/08/16 10:17:54;;;;;;;6.45;5.82;;;28.40;83.00;;;;;;5028708;28;20047;-69
2022/08/16 10:20:23;;;;;;;6.35;5.60;;;28.40;83.20;;;;;;5050711;28;20810;-69
2022/08/16 10:22:48;;;;;;;5.35;4.93;;;28.40;82.60;;;;;;5054987;28;20143;-69
2022/08/16 10:25:14;;;;;;;5.40;4.90;;;28.40;81.40;;;;;;5049724;28;20470;-69
2022/08/16 10:27:39;;;;;;;6.07;5.47;;;28.60;81.80;;;;;;5029369;28;20044;-69
2022/08/16 10:30:07;;;;;;;7.45;5.05;;;28.60;80.50;;;;;;5027386;28;20108;-69
2022/08/16 10:32:33;;;;;;;5.47;5.00;;;28.70;82.00;;;;;;5030495;28;20536;-69
2022/08/16 10:34:59;;;;;;;5.15;4.65;;;28.70;80.60;;;;;;5051329;28;20064;-69
2022/08/16 10:37:25;;;;;;;5.65;4.68;;;28.80;80.40;;;;;;5049351;28;20834;-69
2022/08/16 10:39:51;;;;;;;6.03;5.45;;;28.80;80.10;;;;;;5034637;28;20049;-69
2022/08/16 10:42:17;;;;;;;5.63;5.07;;;28.90;79.80;;;;;;5049864;28;20056;-69
2022/08/16 10:44:43;;;;;;;6.35;5.03;;;28.80;79.40;;;;;;5051573;28;20437;-69
2022/08/16 10:47:10;;;;;;;5.80;5.20;;;28.80;81.00;;;;;;5049203;28;20136;-69
2022/08/16 10:49:35;;;;;;;5.65;5.03;;;28.90;79.90;;;;;;5033533;28;20037;-69
2022/08/16 10:52:02;;;;;;;5.93;5.43;;;28.90;79.40;;;;;;5049523;28;20087;-69
2022/08/16 10:54:28;;;;;;;6.20;5.40;;;28.90;79.20;;;;;;5050605;28;20033;-69
2022/08/16 10:56:54;;;;;;;6.90;5.18;;;29.00;79.40;;;;;;5032713;28;20071;-69
2022/08/16 10:59:20;;;;;;;5.95;5.28;;;29.10;80.10;;;;;;5051302;28;20052;-70
2022/08/16 11:01:46;;;;;;;5.47;4.78;;;29.10;79.90;;;;;;5035002;28;20049;-70
2022/08/16 11:04:12;;;;;;;6.43;5.82;;;29.10;78.40;;;;;;5030921;28;20037;-69
2022/08/16 11:06:38;;;;;;;5.18;4.68;;;29.20;79.30;;;;;;5048362;28;20045;-69
2022/08/16 11:09:03;;;;;;;5.80;5.20;;;29.30;79.50;;;;;;5032734;28;20064;-70
2022/08/16 11:11:29;;;;;;;5.45;4.93;;;29.40;78.60;;;;;;5031735;28;20041;-69
2022/08/16 11:13:54;;;;;;;5.97;5.47;;;29.40;77.50;;;;;;5047739;28;20461;-70
2022/08/16 11:16:20;;;;;;;6.18;4.93;;;29.40;77.70;;;;;;5051219;28;20098;-69
2022/08/16 11:18:46;;;;;;;6.47;5.85;;;29.30;77.30;;;;;;5051176;28;20045;-69
2022/08/16 11:21:13;;;;;;;8.43;5.43;;;29.40;78.20;;;;;;5032391;28;20044;-69
2022/08/16 11:23:39;;;;;;;5.45;4.95;;;29.40;78.30;;;;;;5033201;28;20110;-69
2022/08/16 11:26:06;;;;;;;6.85;6.00;;;29.40;78.80;;;;;;5050914;28;20037;-69
2022/08/16 11:28:34;;;;;;;6.80;5.97;;;29.30;77.50;;;;;;5030067;28;20371;-69
2022/08/16 11:31:00;;;;;;;8.65;5.70;;;29.60;78.60;;;;;;5047324;28;20079;-69
2022/08/16 11:33:26;;;;;;;6.93;6.10;;;29.50;78.40;;;;;;5030328;28;20041;-69
2022/08/16 11:35:51;;;;;;;5.72;5.13;;;29.60;78.20;;;;;;5035583;28;20087;-69
2022/08/16 11:38:20;;;;;;;6.68;5.97;;;29.60;78.10;;;;;;5051018;28;20028;-69
2022/08/16 11:40:57;;;;;;;5.60;5.10;;;29.60;77.10;;;;;;5052258;28;20045;-69
2022/08/16 11:43:26;;;;;;;5.97;5.28;;;29.60;77.50;;;;;;5045045;28;20037;-69
2022/08/16 11:45:55;;;;;;;7.07;6.13;;;29.70;77.60;;;;;;5033067;28;20418;-69
2022/08/16 11:48:25;;;;;;;6.68;6.07;;;29.70;77.80;;;;;;5048612;28;20455;-69
2022/08/16 11:50:52;;;;;;;6.63;6.03;;;29.70;77.70;;;;;;5052352;28;20159;-69
2022/08/16 11:53:19;;;;;;;5.90;5.40;;;29.70;78.40;;;;;;5050603;28;20666;-69
2022/08/16 11:55:46;;;;;;;8.07;5.72;;;29.70;78.40;;;;;;5046120;28;20033;-69
2022/08/16 11:58:12;;;;;;;6.65;5.93;;;29.80;77.00;;;;;;5031141;28;20113;-69
2022/08/16 12:00:41;;;;;;;7.40;6.18;;;29.80;77.50;;;;;;5035570;28;20053;-69
2022/08/16 12:03:07;;;;;;;6.95;5.78;;;29.90;78.00;;;;;;5025132;28;20498;-69
2022/08/16 12:05:34;;;;;;;6.07;5.25;;;29.90;77.10;;;;;;5048295;28;20068;-70
2022/08/16 12:08:03;;;;;;;6.55;5.68;;;29.90;77.10;;;;;;5031304;28;20143;-69
2022/08/16 12:10:29;;;;;;;6.75;6.15;;;30.00;77.40;;;;;;5048646;28;20102;-70
2022/08/16 12:12:55;;;;;;;6.25;5.32;;;29.90;76.10;;;;;;5049418;28;20041;-69
2022/08/16 12:15:21;;;;;;;6.38;5.43;;;30.00;77.70;;;;;;5050289;28;20055;-69
2022/08/16 12:17:47;;;;;;;5.88;5.28;;;30.10;76.10;;;;;;5029676;28;20081;-69
2022/08/16 12:20:17;;;;;;;6.10;5.50;;;30.20;76.50;;;;;;5029234;28;20053;-69
2022/08/16 12:22:44;;;;;;;6.10;5.50;;;30.10;75.30;;;;;;5031758;28;20065;-69
2022/08/16 12:25:13;;;;;;;6.05;5.47;;;30.20;75.80;;;;;;5020024;28;20061;-69
2022/08/16 12:27:40;;;;;;;7.75;5.57;;;30.30;76.90;;;;;;5044633;28;20068;-69
2022/08/16 12:30:08;;;;;;;6.38;5.35;;;30.50;77.30;;;;;;5029809;28;20044;-69
2022/08/16 12:32:33;;;;;;;6.43;5.30;;;30.50;75.80;;;;;;5028240;28;20097;-69
2022/08/16 12:35:00;;;;;;;5.93;5.18;;;30.50;74.10;;;;;;5042907;28;20510;-69